Time;durP1;ratioP1;P1;durP2;ratioP2;P2;SDS_P1;SDS_P2;PMS_P1;PMS_P2;Temp;Humidity;BMP_temperature;BMP_pressure;BME280_temperature;BME280_humidity;BME280_pressure;Samples;Min_cycle;Max_cycle;Signal;HPM_P1;HPM_P2
2021/09/12 00:01:26;;;;;;;1.80;0.50;;;18.30;92.60;;;;;;4832323;29;20046;-75
2021/09/12 00:03:53;;;;;;;4.03;1.02;;;18.20;92.60;;;;;;4813081;29;20444;-75
2021/09/12 00:06:21;;;;;;;3.03;0.93;;;18.30;92.60;;;;;;4819818;29;20045;-75
2021/09/12 00:08:48;;;;;;;2.35;0.85;;;18.20;92.50;;;;;;4821383;29;21780;-76
2021/09/12 00:11:15;;;;;;;1.42;0.70;;;18.30;92.50;;;;;;4843539;29;20049;-75
2021/09/12 00:13:42;;;;;;;2.05;0.75;;;18.20;92.50;;;;;;4840056;29;20037;-75
2021/09/12 00:16:09;;;;;;;2.33;0.85;;;18.20;92.50;;;;;;4838332;29;20046;-75
2021/09/12 00:18:36;;;;;;;2.63;1.10;;;18.20;92.50;;;;;;4822289;29;20684;-76
2021/09/12 00:21:03;;;;;;;3.08;0.60;;;18.20;92.50;;;;;;4829499;29;20077;-75
2021/09/12 00:23:30;;;;;;;2.50;0.60;;;18.20;92.50;;;;;;4842516;29;20466;-76
2021/09/12 00:25:57;;;;;;;3.15;0.98;;;18.20;92.50;;;;;;4846502;29;20148;-76
2021/09/12 00:28:24;;;;;;;2.97;1.20;;;18.20;92.50;;;;;;4826167;29;20121;-75
2021/09/12 00:30:51;;;;;;;2.50;1.13;;;18.20;92.50;;;;;;4828758;29;20034;-76
2021/09/12 00:33:18;;;;;;;3.35;1.38;;;18.20;92.50;;;;;;4824551;29;20046;-75
2021/09/12 00:35:45;;;;;;;3.63;1.15;;;18.20;92.50;;;;;;4828772;29;20098;-75
2021/09/12 00:38:13;;;;;;;5.43;1.38;;;18.20;92.50;;;;;;4842614;29;20550;-76
2021/09/12 00:40:40;;;;;;;6.32;2.45;;;18.20;92.40;;;;;;4823062;29;20054;-76
2021/09/12 00:43:07;;;;;;;3.42;1.40;;;18.20;92.40;;;;;;4835430;29;20053;-75
2021/09/12 00:45:34;;;;;;;3.10;1.23;;;18.20;92.40;;;;;;4827918;29;20513;-76
2021/09/12 00:48:02;;;;;;;3.53;1.52;;;18.20;92.40;;;;;;4843825;29;20088;-75
2021/09/12 00:50:29;;;;;;;2.22;0.90;;;18.20;92.40;;;;;;4825999;29;20099;-76
2021/09/12 00:53:02;;;;;;;3.70;1.40;;;18.20;92.50;;;;;;4826950;29;20563;-75
2021/09/12 00:55:29;;;;;;;2.20;1.13;;;18.20;92.40;;;;;;4828498;29;20049;-76
2021/09/12 00:57:57;;;;;;;5.60;1.23;;;18.20;92.50;;;;;;4814908;29;20049;-75
2021/09/12 01:00:26;;;;;;;3.35;1.38;;;18.20;92.70;;;;;;4833330;29;20520;-76
2021/09/12 01:02:53;;;;;;;4.70;1.80;;;18.20;92.70;;;;;;4832355;29;20073;-76
2021/09/12 01:05:21;;;;;;;3.90;1.48;;;18.20;92.40;;;;;;4824787;29;20064;-75
2021/09/12 01:07:48;;;;;;;3.08;1.25;;;18.20;92.40;;;;;;4848670;29;20080;-75
2021/09/12 01:10:15;;;;;;;4.00;1.33;;;18.20;92.70;;;;;;4846998;29;20079;-76
2021/09/12 01:12:42;;;;;;;3.97;1.85;;;18.10;92.40;;;;;;4819121;29;20053;-76
2021/09/12 01:15:10;;;;;;;3.20;1.50;;;18.10;92.40;;;;;;4821507;29;20042;-75
2021/09/12 01:17:37;;;;;;;3.35;1.35;;;18.20;92.40;;;;;;4826972;29;20122;-76
2021/09/12 01:20:04;;;;;;;3.50;0.90;;;18.10;92.40;;;;;;4822412;29;20052;-76
2021/09/12 01:22:31;;;;;;;2.72;1.13;;;18.10;92.40;;;;;;4810286;29;20096;-75
2021/09/12 01:24:58;;;;;;;5.07;1.60;;;18.10;92.40;;;;;;4841905;29;20046;-75
2021/09/12 01:27:25;;;;;;;5.80;2.40;;;18.10;92.50;;;;;;4831232;29;20070;-76
2021/09/12 01:29:52;;;;;;;6.45;2.67;;;18.10;92.40;;;;;;4811621;29;20046;-75
2021/09/12 01:32:24;;;;;;;5.20;1.70;;;18.10;92.40;;;;;;4827364;29;20055;-76
2021/09/12 01:34:51;;;;;;;6.43;2.67;;;18.00;92.40;;;;;;4822115;29;20046;-76
2021/09/12 01:37:18;;;;;;;4.80;2.47;;;18.10;92.50;;;;;;4840627;29;20130;-75
2021/09/12 01:39:45;;;;;;;4.72;2.67;;;18.00;92.40;;;;;;4795572;29;20491;-75
2021/09/12 01:42:12;;;;;;;5.82;3.35;;;18.00;92.40;;;;;;4793789;29;20062;-75
2021/09/12 01:44:47;;;;;;;4.93;2.63;;;17.90;92.40;;;;;;4796135;29;20186;-74
2021/09/12 01:47:14;;;;;;;4.22;2.13;;;17.90;92.40;;;;;;4805254;29;20043;-74
2021/09/12 01:49:42;;;;;;;4.65;1.98;;;17.90;92.50;;;;;;4803861;29;20130;-75
2021/09/12 01:52:14;;;;;;;6.80;2.42;;;17.90;92.50;;;;;;4805912;29;20107;-75
2021/09/12 01:54:41;;;;;;;4.95;2.10;;;17.90;92.50;;;;;;4817209;29;20149;-75
2021/09/12 01:57:08;;;;;;;6.32;1.85;;;17.80;92.50;;;;;;4807183;29;20061;-75
2021/09/12 01:59:35;;;;;;;4.30;2.35;;;17.80;92.50;;;;;;4826172;29;20113;-75
2021/09/12 02:02:02;;;;;;;6.43;2.50;;;17.80;92.50;;;;;;4823848;29;20042;-76
2021/09/12 02:04:30;;;;;;;5.32;1.95;;;17.70;92.50;;;;;;4820519;29;20466;-76
2021/09/12 02:06:57;;;;;;;4.30;1.70;;;17.70;92.50;;;;;;4823760;29;20107;-76
2021/09/12 02:09:26;;;;;;;4.45;2.17;;;17.70;92.80;;;;;;4806161;29;20499;-76
2021/09/12 02:11:54;;;;;;;5.78;2.00;;;17.60;92.50;;;;;;4822628;29;20038;-75
2021/09/12 02:14:21;;;;;;;2.97;1.55;;;17.50;92.60;;;;;;4807364;29;20042;-76
2021/09/12 02:16:48;;;;;;;3.58;1.80;;;17.50;92.90;;;;;;4812133;29;20124;-75
2021/09/12 02:19:15;;;;;;;3.17;1.52;;;17.50;92.60;;;;;;4820717;29;20552;-75
2021/09/12 02:21:43;;;;;;;4.13;1.67;;;17.40;92.60;;;;;;4806618;29;20119;-76
2021/09/12 02:24:10;;;;;;;2.88;1.50;;;17.40;92.60;;;;;;4821539;29;20076;-75
2021/09/12 02:26:37;;;;;;;3.30;1.40;;;17.40;92.70;;;;;;4819150;29;20046;-75
2021/09/12 02:29:04;;;;;;;4.60;2.17;;;17.30;92.60;;;;;;4808705;29;20044;-75
2021/09/12 02:31:31;;;;;;;6.38;2.47;;;17.30;92.60;;;;;;4791925;29;20080;-75
2021/09/12 02:33:58;;;;;;;6.10;2.80;;;17.30;92.60;;;;;;4806907;29;20053;-75
2021/09/12 02:36:25;;;;;;;6.90;3.05;;;17.30;92.60;;;;;;4812069;29;20050;-75
2021/09/12 02:38:52;;;;;;;6.63;3.60;;;17.20;92.50;;;;;;4807095;29;20047;-75
2021/09/12 02:41:19;;;;;;;4.68;2.20;;;17.10;92.40;;;;;;4829025;29;20460;-75
2021/09/12 02:43:46;;;;;;;6.00;2.90;;;17.10;92.50;;;;;;4815186;29;20134;-75
2021/09/12 02:46:13;;;;;;;3.45;1.80;;;17.10;92.50;;;;;;4815060;29;20668;-75
2021/09/12 02:48:40;;;;;;;5.72;2.50;;;17.00;92.40;;;;;;4806833;29;20034;-75
2021/09/12 02:51:07;;;;;;;4.97;1.98;;;17.00;92.40;;;;;;4832326;29;21122;-75
2021/09/12 02:53:35;;;;;;;7.45;2.20;;;17.00;92.40;;;;;;4829670;29;20045;-75
2021/09/12 02:56:02;;;;;;;3.92;1.77;;;16.90;92.30;;;;;;4812781;29;20132;-75
2021/09/12 02:58:29;;;;;;;4.63;1.92;;;16.90;92.30;;;;;;4809469;29;20039;-75
2021/09/12 03:00:56;;;;;;;5.60;1.83;;;16.90;92.40;;;;;;4813997;29;20056;-75
2021/09/12 03:03:23;;;;;;;4.07;1.73;;;16.80;92.30;;;;;;4814289;29;20057;-75
2021/09/12 03:05:51;;;;;;;5.10;1.85;;;16.80;92.30;;;;;;4835538;29;20130;-75
2021/09/12 03:08:18;;;;;;;3.33;1.83;;;16.80;92.30;;;;;;4837247;29;20046;-75
2021/09/12 03:10:45;;;;;;;6.30;2.33;;;16.80;92.30;;;;;;4785489;29;20101;-75
2021/09/12 03:13:13;;;;;;;4.05;1.85;;;16.70;92.20;;;;;;4797629;29;20058;-75
2021/09/12 03:15:40;;;;;;;5.63;2.60;;;16.70;92.10;;;;;;4812939;29;20042;-74
2021/09/12 03:18:07;;;;;;;3.45;1.65;;;16.60;92.10;;;;;;4812462;29;20053;-75
2021/09/12 03:20:34;;;;;;;5.70;2.35;;;16.60;92.10;;;;;;4829047;29;20066;-75
2021/09/12 03:23:01;;;;;;;8.88;2.60;;;16.60;92.10;;;;;;4829037;29;20074;-75
2021/09/12 03:25:28;;;;;;;5.20;2.50;;;16.50;92.10;;;;;;4828145;29;20066;-75
2021/09/12 03:27:55;;;;;;;5.68;2.15;;;16.50;92.10;;;;;;4834524;29;20042;-75
2021/09/12 03:30:22;;;;;;;5.40;1.75;;;16.40;92.10;;;;;;4808414;29;20156;-75
2021/09/12 03:32:49;;;;;;;4.68;2.17;;;16.40;92.20;;;;;;4818734;29;20163;-74
2021/09/12 03:35:17;;;;;;;6.05;2.10;;;16.30;92.40;;;;;;4801442;29;20121;-74
2021/09/12 03:37:44;;;;;;;4.63;2.10;;;16.20;92.20;;;;;;4805721;29;20132;-74
2021/09/12 03:40:11;;;;;;;3.20;1.60;;;16.20;92.20;;;;;;4831578;29;20113;-74
2021/09/12 03:42:38;;;;;;;4.32;2.13;;;16.20;92.20;;;;;;4810103;29;20050;-74
2021/09/12 03:45:05;;;;;;;4.97;2.10;;;16.10;92.20;;;;;;4823199;29;20476;-74
2021/09/12 03:47:33;;;;;;;4.47;1.98;;;16.10;92.30;;;;;;4808529;29;20038;-75
2021/09/12 03:50:00;;;;;;;4.93;1.92;;;16.10;92.30;;;;;;4825528;29;20056;-75
2021/09/12 03:52:27;;;;;;;3.47;1.60;;;16.10;92.30;;;;;;4816040;29;20380;-75
2021/09/12 03:54:54;;;;;;;4.38;2.17;;;16.10;92.30;;;;;;4825731;29;20091;-75
2021/09/12 03:57:23;;;;;;;5.43;1.48;;;16.00;92.30;;;;;;4821935;29;20046;-75
2021/09/12 03:59:53;;;;;;;2.63;1.00;;;15.90;92.30;;;;;;4825578;29;20057;-75
2021/09/12 04:02:20;;;;;;;3.65;1.60;;;15.90;92.40;;;;;;4827954;29;20179;-75
2021/09/12 04:04:47;;;;;;;2.95;1.13;;;15.90;92.40;;;;;;4828012;29;20034;-75
2021/09/12 04:07:14;;;;;;;4.35;1.77;;;15.90;92.40;;;;;;4808348;29;20106;-75
2021/09/12 04:09:41;;;;;;;4.57;2.17;;;15.90;92.40;;;;;;4825224;29;20062;-75
2021/09/12 04:12:09;;;;;;;5.15;2.00;;;15.80;92.40;;;;;;4820975;29;20038;-75
2021/09/12 04:14:36;;;;;;;3.63;1.70;;;15.80;92.40;;;;;;4808139;29;20038;-75
2021/09/12 04:17:04;;;;;;;3.72;1.63;;;15.80;92.40;;;;;;4810088;29;20054;-75
2021/09/12 04:19:31;;;;;;;7.20;2.05;;;15.80;92.50;;;;;;4807064;29;20453;-75
2021/09/12 04:21:58;;;;;;;6.30;2.20;;;15.80;92.40;;;;;;4827308;29;20046;-75
2021/09/12 04:24:25;;;;;;;5.63;1.88;;;15.80;92.40;;;;;;4810882;29;20048;-74
2021/09/12 04:26:52;;;;;;;4.70;2.25;;;15.70;92.40;;;;;;4794321;29;20471;-75
2021/09/12 04:29:21;;;;;;;6.97;2.33;;;15.70;92.40;;;;;;4822155;29;20134;-75
2021/09/12 04:31:48;;;;;;;4.38;2.30;;;15.70;92.40;;;;;;4824160;29;20101;-75
2021/09/12 04:34:16;;;;;;;4.95;2.15;;;15.70;92.40;;;;;;4815616;29;20049;-75
2021/09/12 04:36:43;;;;;;;3.95;1.85;;;15.60;92.70;;;;;;4824811;29;20058;-75
2021/09/12 04:39:10;;;;;;;5.40;2.03;;;15.60;92.40;;;;;;4824728;29;20091;-75
2021/09/12 04:41:37;;;;;;;7.60;1.92;;;15.60;92.40;;;;;;4819643;29;20054;-75
2021/09/12 04:44:05;;;;;;;4.18;2.17;;;15.50;92.40;;;;;;4807519;29;20045;-75
2021/09/12 04:46:32;;;;;;;3.03;1.52;;;15.50;92.40;;;;;;4837590;29;20889;-74
2021/09/12 04:48:59;;;;;;;5.15;1.88;;;15.50;92.50;;;;;;4838614;29;20224;-75
2021/09/12 04:51:27;;;;;;;3.45;1.75;;;15.50;92.50;;;;;;4808075;29;20077;-75
2021/09/12 04:53:55;;;;;;;6.88;2.15;;;15.50;92.50;;;;;;4820397;29;20042;-75
2021/09/12 04:56:23;;;;;;;3.78;1.80;;;15.40;92.50;;;;;;4834233;29;20099;-75
2021/09/12 04:58:50;;;;;;;6.28;1.75;;;15.40;92.50;;;;;;4819617;29;20045;-75
2021/09/12 05:01:18;;;;;;;3.67;1.92;;;15.40;92.50;;;;;;4820105;29;20052;-75
2021/09/12 05:03:45;;;;;;;6.13;2.33;;;15.40;92.60;;;;;;4834392;29;20073;-75
2021/09/12 05:06:12;;;;;;;4.97;2.22;;;15.30;92.60;;;;;;4839647;29;21712;-75
2021/09/12 05:08:40;;;;;;;4.82;1.85;;;15.30;92.60;;;;;;4826423;29;20452;-75
2021/09/12 05:11:07;;;;;;;4.28;1.88;;;15.30;92.60;;;;;;4823735;29;20479;-75
2021/09/12 05:13:36;;;;;;;5.15;2.08;;;15.30;92.60;;;;;;4821953;29;20042;-74
2021/09/12 05:16:04;;;;;;;6.00;2.65;;;15.30;92.60;;;;;;4836396;29;20051;-75
2021/09/12 05:18:31;;;;;;;5.03;2.50;;;15.20;92.60;;;;;;4839982;29;20046;-75
2021/09/12 05:20:59;;;;;;;5.07;1.83;;;15.20;92.50;;;;;;4835473;29;20077;-75
2021/09/12 05:23:27;;;;;;;4.38;2.13;;;15.20;92.60;;;;;;4838332;29;20050;-75
2021/09/12 05:25:54;;;;;;;4.25;1.83;;;15.20;92.60;;;;;;4838073;29;20157;-75
2021/09/12 05:28:21;;;;;;;6.97;2.55;;;15.20;92.60;;;;;;4837468;29;20540;-75
2021/09/12 05:30:49;;;;;;;6.28;2.88;;;15.20;92.60;;;;;;4839233;29;20045;-75
2021/09/12 05:33:16;;;;;;;7.55;2.60;;;15.20;92.60;;;;;;4841597;29;20054;-75
2021/09/12 05:35:43;;;;;;;6.60;2.38;;;15.20;92.60;;;;;;4840832;29;20042;-75
2021/09/12 05:38:10;;;;;;;7.55;2.58;;;15.20;92.50;;;;;;4837776;29;20129;-75
2021/09/12 05:40:37;;;;;;;4.25;2.10;;;15.20;92.60;;;;;;4826986;29;20141;-75
2021/09/12 05:43:04;;;;;;;4.65;2.25;;;15.20;92.50;;;;;;4797876;29;20035;-75
2021/09/12 05:45:31;;;;;;;4.97;2.33;;;15.20;92.50;;;;;;4837340;29;20449;-75
2021/09/12 05:47:58;;;;;;;5.80;2.78;;;15.20;92.50;;;;;;4825214;29;20077;-75
2021/09/12 05:50:25;;;;;;;6.32;2.47;;;15.20;92.80;;;;;;4795251;29;20057;-75
2021/09/12 05:52:52;;;;;;;6.07;2.25;;;15.20;92.50;;;;;;4809386;29;20400;-75
2021/09/12 05:55:19;;;;;;;3.75;1.92;;;15.30;92.50;;;;;;4831867;29;20125;-75
2021/09/12 05:57:46;;;;;;;5.63;2.88;;;15.30;92.40;;;;;;4834238;29;20046;-75
2021/09/12 06:00:13;;;;;;;5.65;2.70;;;15.30;92.40;;;;;;4823941;29;20072;-74
2021/09/12 06:02:40;;;;;;;6.10;2.75;;;15.30;92.40;;;;;;4847619;29;20436;-75
2021/09/12 06:05:08;;;;;;;6.30;2.78;;;15.30;92.30;;;;;;4845150;29;20110;-75
2021/09/12 06:07:35;;;;;;;6.10;2.92;;;15.40;92.30;;;;;;4828536;29;20046;-75
2021/09/12 06:10:02;;;;;;;5.05;2.95;;;15.40;92.30;;;;;;4826604;29;20084;-75
2021/09/12 06:12:29;;;;;;;5.93;2.58;;;15.40;92.30;;;;;;4810715;29;20042;-74
2021/09/12 06:14:56;;;;;;;6.40;3.33;;;15.50;92.20;;;;;;4843133;29;20045;-75
2021/09/12 06:17:23;;;;;;;10.05;3.72;;;15.50;92.20;;;;;;4847855;29;20133;-75
2021/09/12 06:19:52;;;;;;;9.65;4.40;;;15.50;92.10;;;;;;4818056;29;20049;-75
2021/09/12 06:22:19;;;;;;;7.03;3.35;;;15.50;92.40;;;;;;4830824;29;20086;-75
2021/09/12 06:24:46;;;;;;;9.73;3.78;;;15.50;92.10;;;;;;4825288;29;20050;-75
2021/09/12 06:27:13;;;;;;;6.63;3.50;;;15.50;92.10;;;;;;4829891;29;20126;-75
2021/09/12 06:29:40;;;;;;;6.95;3.45;;;15.50;92.00;;;;;;4834947;29;20144;-75
2021/09/12 06:32:07;;;;;;;7.93;3.08;;;15.60;92.10;;;;;;4827352;29;20046;-74
2021/09/12 06:34:35;;;;;;;6.40;2.83;;;15.60;92.00;;;;;;4841302;29;20050;-75
2021/09/12 06:37:02;;;;;;;6.45;2.83;;;15.70;92.00;;;;;;4831195;29;20092;-75
2021/09/12 06:39:29;;;;;;;6.40;3.22;;;15.70;92.00;;;;;;4825355;29;20056;-74
2021/09/12 06:41:56;;;;;;;8.32;2.83;;;15.80;91.90;;;;;;4832555;29;20586;-75
2021/09/12 06:44:23;;;;;;;5.85;2.55;;;15.80;91.90;;;;;;4842130;29;20049;-75
2021/09/12 06:46:50;;;;;;;5.28;3.00;;;15.90;91.90;;;;;;4843585;29;20114;-75
2021/09/12 06:49:17;;;;;;;6.32;3.38;;;16.00;91.80;;;;;;4845184;29;20124;-75
2021/09/12 06:51:44;;;;;;;7.07;4.10;;;16.00;91.70;;;;;;4839279;29;20507;-75
2021/09/12 06:54:11;;;;;;;7.95;3.90;;;16.10;91.70;;;;;;4815020;29;20092;-75
2021/09/12 06:56:38;;;;;;;8.73;3.75;;;16.20;91.60;;;;;;4832826;29;20133;-75
2021/09/12 06:59:05;;;;;;;5.63;2.97;;;16.20;91.50;;;;;;4843069;29;20153;-75
2021/09/12 07:01:32;;;;;;;6.45;3.08;;;16.20;91.50;;;;;;4842153;29;20469;-74
2021/09/12 07:04:00;;;;;;;7.85;3.60;;;16.30;91.50;;;;;;4846301;29;20041;-75
2021/09/12 07:06:27;;;;;;;6.18;3.00;;;16.30;91.40;;;;;;4843405;29;20466;-74
2021/09/12 07:08:55;;;;;;;6.50;2.97;;;16.30;91.30;;;;;;4842567;29;20121;-75
2021/09/12 07:11:22;;;;;;;7.10;2.05;;;16.40;91.40;;;;;;4842391;29;21886;-76
2021/09/12 07:13:49;;;;;;;8.02;3.28;;;16.40;91.40;;;;;;4831861;29;20093;-75
2021/09/12 07:16:16;;;;;;;6.43;1.92;;;16.50;91.40;;;;;;4811478;29;20383;-74
2021/09/12 07:18:43;;;;;;;5.65;2.78;;;16.50;91.40;;;;;;4824979;29;20046;-74
2021/09/12 07:21:10;;;;;;;6.35;3.22;;;16.50;91.30;;;;;;4820848;29;20102;-75
2021/09/12 07:23:37;;;;;;;5.47;3.13;;;16.50;91.20;;;;;;4823686;29;20041;-74
2021/09/12 07:26:04;;;;;;;4.85;2.67;;;16.50;91.20;;;;;;4837381;29;20049;-73
2021/09/12 07:28:33;;;;;;;4.85;2.13;;;16.50;91.20;;;;;;4839647;29;20137;-73
2021/09/12 07:31:00;;;;;;;7.75;3.17;;;16.60;91.20;;;;;;4826758;29;20482;-74
2021/09/12 07:33:27;;;;;;;5.50;2.15;;;16.60;91.10;;;;;;4842805;29;20479;-74
2021/09/12 07:35:57;;;;;;;4.97;2.67;;;16.70;91.10;;;;;;4842127;29;20094;-75
2021/09/12 07:38:24;;;;;;;7.80;3.38;;;16.70;91.00;;;;;;4841185;29;20098;-74
2021/09/12 07:40:51;;;;;;;8.85;3.22;;;16.70;90.90;;;;;;4838823;29;20058;-74
2021/09/12 07:43:18;;;;;;;7.20;3.03;;;16.80;90.90;;;;;;4822372;29;20140;-74
2021/09/12 07:45:45;;;;;;;7.05;3.00;;;16.80;90.80;;;;;;4807212;29;20676;-74
2021/09/12 07:48:12;;;;;;;6.47;2.60;;;16.90;90.80;;;;;;4825151;29;20103;-75
2021/09/12 07:50:39;;;;;;;6.88;3.05;;;16.90;90.60;;;;;;4840257;29;20103;-75
2021/09/12 07:53:06;;;;;;;4.15;2.28;;;17.00;90.70;;;;;;4809184;29;20124;-75
2021/09/12 07:55:34;;;;;;;5.75;2.50;;;17.00;90.70;;;;;;4831915;29;20046;-75
2021/09/12 07:58:01;;;;;;;4.53;2.30;;;17.10;90.60;;;;;;4796578;29;20084;-75
2021/09/12 08:00:28;;;;;;;5.22;2.15;;;17.10;90.60;;;;;;4827421;29;20046;-75
2021/09/12 08:02:55;;;;;;;5.93;2.92;;;17.20;90.50;;;;;;4838293;29;21792;-75
2021/09/12 08:05:24;;;;;;;6.45;3.42;;;17.30;90.50;;;;;;4827171;29;20042;-75
2021/09/12 08:07:55;;;;;;;7.63;3.55;;;17.30;90.40;;;;;;4815606;29;20041;-75
2021/09/12 08:10:22;;;;;;;7.95;3.83;;;17.40;90.30;;;;;;4823298;29;20512;-75
2021/09/12 08:12:49;;;;;;;7.22;3.30;;;17.40;90.20;;;;;;4825167;29;20500;-75
2021/09/12 08:15:16;;;;;;;8.70;3.90;;;17.40;90.10;;;;;;4809897;29;20045;-75
2021/09/12 08:17:43;;;;;;;7.47;3.40;;;17.50;90.20;;;;;;4811964;29;20038;-75
2021/09/12 08:20:13;;;;;;;5.85;2.40;;;17.60;90.10;;;;;;4807143;29;20064;-76
2021/09/12 08:22:41;;;;;;;6.72;2.55;;;17.60;90.10;;;;;;4841643;29;20069;-76
2021/09/12 08:25:08;;;;;;;7.65;3.00;;;17.70;90.10;;;;;;4825660;29;20161;-75
2021/09/12 08:27:35;;;;;;;7.55;2.58;;;17.80;90.10;;;;;;4842714;29;20042;-76
2021/09/12 08:30:04;;;;;;;6.10;2.53;;;17.90;90.00;;;;;;4841513;29;20129;-76
2021/09/12 08:32:31;;;;;;;4.78;2.20;;;18.00;89.90;;;;;;4825372;29;20042;-76
2021/09/12 08:34:58;;;;;;;4.97;2.60;;;18.10;89.70;;;;;;4813807;29;20044;-76
2021/09/12 08:37:24;;;;;;;7.22;3.17;;;18.30;89.40;;;;;;4831177;29;20042;-76
2021/09/12 08:39:52;;;;;;;8.25;4.22;;;18.50;89.00;;;;;;4820895;29;20479;-75
2021/09/12 08:42:20;;;;;;;7.32;3.50;;;18.60;88.50;;;;;;4849725;29;20056;-76
2021/09/12 08:44:49;;;;;;;8.82;3.83;;;18.70;88.20;;;;;;4826471;29;20061;-74
2021/09/12 08:47:16;;;;;;;6.75;3.17;;;18.80;88.00;;;;;;4831316;29;20563;-76
2021/09/12 08:49:44;;;;;;;7.03;3.20;;;18.80;87.90;;;;;;4825052;29;20126;-74
2021/09/12 08:52:13;;;;;;;8.88;4.18;;;18.90;87.90;;;;;;4806241;29;20098;-74
2021/09/12 08:54:41;;;;;;;10.63;5.00;;;19.00;87.50;;;;;;4850643;29;20068;-76
2021/09/12 08:57:08;;;;;;;8.23;3.95;;;19.00;87.00;;;;;;4834910;29;20038;-75
2021/09/12 08:59:35;;;;;;;10.57;4.75;;;19.00;87.10;;;;;;4834601;29;20132;-75
2021/09/12 09:02:08;;;;;;;7.40;4.57;;;19.00;86.90;;;;;;4829112;29;20046;-75
2021/09/12 09:04:36;;;;;;;7.35;3.80;;;19.00;86.90;;;;;;4831631;29;20082;-76
2021/09/12 09:07:11;;;;;;;8.10;4.45;;;19.10;86.70;;;;;;4800544;29;20062;-76
2021/09/12 09:09:57;;;;;;;7.70;4.20;;;19.10;86.40;;;;;;4847043;29;20073;-77
2021/09/12 09:12:33;;;;;;;11.55;5.30;;;19.10;86.50;;;;;;4853296;29;20169;-76
2021/09/12 09:15:11;;;;;;;8.43;4.65;;;19.10;86.10;;;;;;4839150;29;20042;-75
2021/09/12 09:17:38;;;;;;;8.98;4.55;;;19.10;86.30;;;;;;4829412;29;20050;-76
2021/09/12 09:20:07;;;;;;;7.30;4.28;;;19.00;86.30;;;;;;4821458;29;20135;-76
2021/09/12 09:22:40;;;;;;;9.10;4.35;;;19.10;86.20;;;;;;4822489;29;20152;-77
2021/09/12 09:25:12;;;;;;;7.07;3.30;;;19.20;86.00;;;;;;4809385;29;20045;-76
2021/09/12 09:28:12;;;;;;;7.07;3.58;;;19.30;85.80;;;;;;4825299;29;20054;-76
2021/09/12 09:31:01;;;;;;;7.63;3.78;;;19.30;85.60;;;;;;4781439;29;20134;-77
2021/09/12 09:33:29;;;;;;;5.93;3.08;;;19.40;85.80;;;;;;4822316;29;20099;-76
2021/09/12 09:36:02;;;;;;;6.93;3.22;;;19.40;85.70;;;;;;4833955;29;20122;-76
2021/09/12 09:38:32;;;;;;;9.07;4.65;;;19.50;85.60;;;;;;4809036;29;20568;-76
2021/09/12 09:41:12;;;;;;;6.28;2.65;;;19.40;85.60;;;;;;4816255;29;20093;-76
2021/09/12 09:43:48;;;;;;;6.13;2.97;;;19.50;85.70;;;;;;4826405;29;20042;-76
2021/09/12 09:46:35;;;;;;;7.47;4.43;;;19.60;85.80;;;;;;4830217;29;20062;-75
2021/09/12 09:49:26;;;;;;;8.15;4.45;;;19.80;85.10;;;;;;4829515;29;20042;-75
2021/09/12 09:51:58;;;;;;;8.93;3.42;;;20.00;84.90;;;;;;4835178;29;20065;-76
2021/09/12 09:54:28;;;;;;;6.35;4.07;;;20.10;84.60;;;;;;4832145;29;20046;-75
2021/09/12 09:56:56;;;;;;;5.65;3.35;;;20.10;84.30;;;;;;4831489;29;20110;-75
2021/09/12 09:59:24;;;;;;;5.93;3.75;;;20.20;84.40;;;;;;4828425;29;20048;-76
2021/09/12 10:01:53;;;;;;;6.07;3.38;;;20.30;84.40;;;;;;4827790;29;20106;-75
2021/09/12 10:04:23;;;;;;;6.70;2.30;;;20.40;84.10;;;;;;4839763;29;20129;-75
2021/09/12 10:06:54;;;;;;;3.65;2.45;;;20.50;84.10;;;;;;4813685;29;20055;-76
2021/09/12 10:09:22;;;;;;;4.97;2.17;;;20.50;83.80;;;;;;4836046;29;20070;-76
2021/09/12 10:11:55;;;;;;;7.22;3.00;;;20.70;83.80;;;;;;4820688;29;20051;-76
2021/09/12 10:14:51;;;;;;;5.50;2.97;;;20.80;83.40;;;;;;4844019;29;20053;-75
2021/09/12 10:17:24;;;;;;;5.13;2.97;;;20.80;83.00;;;;;;4842583;29;20058;-76
2021/09/12 10:20:08;;;;;;;5.45;2.13;;;20.80;83.30;;;;;;4826101;29;20138;-76
2021/09/12 10:22:53;;;;;;;5.53;2.42;;;20.80;83.10;;;;;;4856720;29;20091;-75
2021/09/12 10:25:28;;;;;;;4.35;2.10;;;20.80;83.10;;;;;;4833166;29;20095;-75
2021/09/12 10:28:08;;;;;;;6.75;2.20;;;20.70;83.50;;;;;;4841425;29;20068;-76
2021/09/12 10:30:37;;;;;;;6.05;2.70;;;20.60;83.40;;;;;;4837542;29;20475;-76
2021/09/12 10:33:08;;;;;;;5.78;3.47;;;20.60;83.60;;;;;;4840404;29;20046;-75
2021/09/12 10:35:47;;;;;;;6.55;3.70;;;20.60;83.50;;;;;;4844005;29;20052;-76
2021/09/12 10:38:23;;;;;;;5.43;3.00;;;20.50;83.40;;;;;;4843143;29;20053;-75
2021/09/12 10:40:50;;;;;;;5.80;3.03;;;20.50;83.60;;;;;;4835742;29;20065;-75
2021/09/12 10:43:30;;;;;;;5.78;3.28;;;20.30;83.60;;;;;;4833466;29;20078;-75
2021/09/12 10:46:06;;;;;;;6.97;2.75;;;20.30;83.70;;;;;;4825319;29;20050;-74
2021/09/12 10:48:40;;;;;;;7.03;4.00;;;20.30;83.80;;;;;;4850338;29;20050;-74
2021/09/12 10:51:21;;;;;;;6.80;4.45;;;20.30;83.70;;;;;;4830135;29;20152;-74
2021/09/12 10:54:00;;;;;;;6.55;3.58;;;20.20;83.70;;;;;;4848399;29;20110;-76
2021/09/12 10:56:35;;;;;;;6.78;3.25;;;20.20;83.70;;;;;;4843604;29;20064;-75
2021/09/12 10:59:13;;;;;;;6.22;3.85;;;20.30;83.80;;;;;;4831675;29;20390;-76
2021/09/12 11:01:45;;;;;;;7.70;4.13;;;20.30;83.50;;;;;;4814262;29;20119;-76
2021/09/12 11:04:15;;;;;;;7.80;4.68;;;20.30;83.50;;;;;;4845110;29;20460;-76
2021/09/12 11:06:43;;;;;;;6.95;4.10;;;20.30;83.50;;;;;;4817947;29;20046;-76
2021/09/12 11:09:24;;;;;;;11.75;5.63;;;20.30;83.40;;;;;;4827579;29;20418;-75
2021/09/12 11:12:05;;;;;;;9.13;5.32;;;20.30;83.10;;;;;;4841061;29;20052;-75
2021/09/12 11:14:33;;;;;;;8.77;5.00;;;20.30;83.10;;;;;;4829242;29;20118;-75
2021/09/12 11:17:05;;;;;;;8.35;5.53;;;20.30;82.90;;;;;;4844432;29;20072;-76
2021/09/12 11:19:33;;;;;;;6.85;3.88;;;20.50;82.80;;;;;;4827594;29;20050;-75
2021/09/12 11:22:00;;;;;;;6.85;4.28;;;20.60;82.80;;;;;;4816711;29;20053;-76
2021/09/12 11:24:28;;;;;;;10.45;5.93;;;20.80;82.40;;;;;;4840448;29;20042;-76
2021/09/12 11:27:04;;;;;;;11.85;6.63;;;21.00;82.00;;;;;;4844922;29;20045;-75
2021/09/12 11:29:33;;;;;;;8.65;5.53;;;21.10;81.50;;;;;;4850768;29;20491;-75
2021/09/12 11:32:06;;;;;;;6.32;4.00;;;21.00;81.80;;;;;;4842673;29;20864;-75
2021/09/12 11:34:34;;;;;;;;;;;21.00;82.00;;;;;;4847679;29;20053;-74
2021/09/12 11:37:16;;;;;;;10.35;6.43;;;20.90;82.10;;;;;;4838312;29;20376;-75
2021/09/12 11:39:52;;;;;;;13.55;6.72;;;20.80;82.30;;;;;;4841805;29;20126;-76
2021/09/12 11:42:19;;;;;;;8.93;5.57;;;20.80;82.20;;;;;;4829727;29;20065;-75
2021/09/12 11:44:48;;;;;;;9.50;6.13;;;20.70;82.40;;;;;;4840338;29;20052;-74
2021/09/12 11:47:20;;;;;;;8.93;5.15;;;20.80;82.20;;;;;;4844328;29;20170;-74
2021/09/12 11:50:09;;;;;;;12.48;7.63;;;20.80;82.20;;;;;;4849367;29;20050;-75
2021/09/12 11:52:41;;;;;;;12.45;5.60;;;20.90;81.80;;;;;;4853222;29;20040;-74
2021/09/12 11:55:27;;;;;;;8.18;5.30;;;21.00;81.80;;;;;;4835769;29;20395;-74
2021/09/12 11:58:04;;;;;;;7.97;5.03;;;21.10;81.70;;;;;;4835657;29;20102;-75
2021/09/12 12:00:43;;;;;;;9.90;4.93;;;21.10;81.70;;;;;;4844628;29;20121;-74
2021/09/12 12:03:13;;;;;;;7.97;5.35;;;21.10;81.60;;;;;;4848961;29;20053;-74
2021/09/12 12:05:45;;;;;;;9.85;6.30;;;21.10;82.30;;;;;;4828283;29;20053;-74
2021/09/12 12:08:17;;;;;;;11.82;6.57;;;21.10;81.60;;;;;;4825159;29;20050;-75
2021/09/12 12:10:45;;;;;;;11.73;6.07;;;21.00;81.70;;;;;;4828923;29;20107;-76
2021/09/12 12:13:12;;;;;;;8.38;5.88;;;21.00;81.90;;;;;;4810569;29;20515;-76
2021/09/12 12:15:48;;;;;;;8.55;5.55;;;21.00;82.00;;;;;;4824642;29;20113;-75
2021/09/12 12:18:20;;;;;;;6.35;4.40;;;21.00;81.90;;;;;;4822544;29;20058;-75
2021/09/12 12:20:47;;;;;;;8.38;5.72;;;21.10;81.80;;;;;;4846441;29;20113;-74
2021/09/12 12:23:20;;;;;;;10.35;6.15;;;21.30;81.50;;;;;;4816311;29;20053;-75
2021/09/12 12:25:48;;;;;;;10.13;5.97;;;21.30;81.20;;;;;;4840638;29;20829;-75
2021/09/12 12:28:22;;;;;;;7.82;5.65;;;21.30;81.30;;;;;;4847040;29;20050;-74
2021/09/12 12:31:09;;;;;;;10.02;7.47;;;21.40;81.20;;;;;;4847726;29;20428;-75
2021/09/12 12:33:41;;;;;;;11.50;8.10;;;21.40;80.80;;;;;;4826482;29;20071;-74
2021/09/12 12:36:14;;;;;;;12.05;9.70;;;21.40;80.80;;;;;;4823833;29;20046;-75
2021/09/12 12:38:41;;;;;;;11.98;8.75;;;21.40;80.60;;;;;;4831060;29;20171;-75
2021/09/12 12:41:11;;;;;;;10.52;8.48;;;21.40;80.60;;;;;;4833775;29;20614;-75
2021/09/12 12:43:39;;;;;;;13.00;9.23;;;21.50;80.50;;;;;;4810646;29;20050;-74
2021/09/12 12:46:06;;;;;;;13.18;10.00;;;21.60;80.10;;;;;;4822647;29;20067;-75
2021/09/12 12:48:36;;;;;;;14.30;10.20;;;21.50;79.70;;;;;;4825016;29;20125;-77
2021/09/12 12:51:18;;;;;;;13.77;10.02;;;21.50;80.00;;;;;;4807383;29;20047;-77
2021/09/12 12:53:51;;;;;;;14.60;10.40;;;21.40;79.80;;;;;;4818159;29;20065;-76
2021/09/12 12:56:22;;;;;;;14.75;10.02;;;21.40;79.80;;;;;;4810707;29;20391;-75